createdAt,value
2022-08-02T00:00:00.193Z,99312.88
2022-08-02T00:05:05.098Z,99301.16
2022-08-02T00:10:10.129Z,99290.50
2022-08-02T00:15:15.944Z,99292.31
2022-08-02T00:20:20.812Z,99288.63
2022-08-02T00:25:24.008Z,99283.50
2022-08-02T00:30:27.006Z,99292.00
2022-08-02T00:35:31.368Z,99303.09
2022-08-02T00:40:34.555Z,99309.72
2022-08-02T00:46:02.692Z,99310.47
2022-08-02T00:51:04.484Z,99300.63
2022-08-02T00:56:07.639Z,99301.41
2022-08-02T01:01:10.693Z,99300.25
2022-08-02T01:06:15.167Z,99300.97
2022-08-02T01:11:18.167Z,99288.91
2022-08-02T01:16:27.452Z,99283.06
2022-08-02T01:21:46.649Z,99284.88
2022-08-02T01:26:53.848Z,99300.31
2022-08-02T01:32:05.349Z,99298.91
2022-08-02T01:37:12.393Z,99302.00
2022-08-02T01:42:17.247Z,99295.66
2022-08-02T01:47:25.586Z,99302.56
2022-08-02T01:52:31.985Z,99314.97
2022-08-02T01:57:41.963Z,99304.38
2022-08-02T02:02:49.110Z,99306.78
2022-08-02T02:07:56.387Z,99316.28
2022-08-02T02:13:03.736Z,99301.19
2022-08-02T02:18:12.986Z,99316.03
2022-08-02T02:23:17.431Z,99311.63
2022-08-02T02:28:31.118Z,99308.84
2022-08-02T02:33:39.544Z,99312.72
2022-08-02T02:38:44.223Z,99305.34
2022-08-02T02:43:48.553Z,99321.50
2022-08-02T02:48:53.941Z,99330.22
2022-08-02T02:54:32.083Z,99329.84
2022-08-02T02:59:22.575Z,99329.84
2022-08-02T03:04:36.121Z,99330.63
2022-08-02T03:09:54.155Z,99345.31
2022-08-02T03:14:59.697Z,99353.31
2022-08-02T03:20:05.268Z,99352.56
2022-08-02T03:25:09.622Z,99349.50
2022-08-02T03:30:14.770Z,99347.47
2022-08-02T03:35:24.173Z,99353.50
2022-08-02T03:40:29.501Z,99344.31
2022-08-02T03:45:32.900Z,99341.19
2022-08-02T03:50:38.692Z,99342.94
2022-08-02T03:55:41.959Z,99339.53
2022-08-02T04:00:45.121Z,99331.78
2022-08-02T04:06:03.585Z,99334.47
2022-08-02T04:11:25.447Z,99344.16
2022-08-02T04:16:40.014Z,99350.19
2022-08-02T04:21:51.257Z,99352.53
2022-08-02T04:26:57.832Z,99364.41
2022-08-02T04:32:06.043Z,99377.63
2022-08-02T04:37:10.473Z,99389.97
2022-08-02T04:42:21.927Z,99398.81
2022-08-02T04:47:54.257Z,99395.81
2022-08-02T04:52:49.717Z,99399.69
2022-08-02T04:57:58.795Z,99400.66
2022-08-02T05:03:02.559Z,99408.47
2022-08-02T05:08:07.111Z,99401.91
2022-08-02T05:13:10.100Z,99408.44
2022-08-02T05:18:13.035Z,99406.56
2022-08-02T05:23:17.654Z,99409.31
2022-08-02T05:28:20.655Z,99408.72
2022-08-02T05:33:23.666Z,99406.53
2022-08-02T05:38:31.127Z,99405.03
2022-08-02T05:43:34.948Z,99406.38
2022-08-02T05:48:38.847Z,99401.00
2022-08-02T05:53:50.929Z,99389.41
2022-08-02T05:58:57.994Z,99400.13
2022-08-02T06:04:02.005Z,99408.94
2022-08-02T06:09:11.007Z,99415.97
2022-08-02T06:14:14.673Z,99411.31
2022-08-02T06:19:19.814Z,99409.50
2022-08-02T06:24:25.913Z,99417.59
2022-08-02T06:29:35.656Z,99425.41
2022-08-02T06:34:41.461Z,99426.69
2022-08-02T06:39:50.106Z,99432.66
2022-08-02T06:44:57.461Z,99416.06
2022-08-02T06:50:01.271Z,99415.44
2022-08-02T06:55:07.016Z,99421.13
2022-08-02T07:00:11.377Z,99409.84
2022-08-02T07:05:14.452Z,99409.22
2022-08-02T07:10:18.967Z,99417.72
2022-08-02T07:15:22.083Z,99414.72
2022-08-02T07:20:25.293Z,99406.91
2022-08-02T07:26:02.308Z,99410.34
2022-08-02T07:30:52.868Z,99411.00
2022-08-02T07:35:57.446Z,99401.44
2022-08-02T07:41:01.817Z,99390.75
2022-08-02T07:46:04.898Z,99381.97
2022-08-02T07:51:07.878Z,99399.66
2022-08-02T07:56:12.278Z,99385.56
2022-08-02T08:01:15.334Z,99387.00
2022-08-02T08:06:18.516Z,99384.25
2022-08-02T08:11:22.881Z,99393.16
2022-08-02T08:16:26.283Z,99378.78
2022-08-02T08:21:29.663Z,99370.72
2022-08-02T08:26:34.095Z,99374.94
2022-08-02T08:31:37.967Z,99376.06
2022-08-02T08:36:41.133Z,99372.28
2022-08-02T08:41:45.563Z,99378.63
2022-08-02T08:46:50.742Z,99370.75
2022-08-02T08:51:56.975Z,99370.13
2022-08-02T08:57:05.548Z,99367.47
2022-08-02T09:02:19.515Z,99363.22
2022-08-02T09:07:23.618Z,99356.88
2022-08-02T09:12:28.008Z,99359.81
2022-08-02T09:17:31.018Z,99356.69
2022-08-02T09:22:34.546Z,99350.91
2022-08-02T09:27:38.979Z,99353.69
2022-08-02T09:32:46.584Z,99368.31
2022-08-02T09:37:49.830Z,99357.22
2022-08-02T09:43:00.580Z,99355.16
2022-08-02T09:48:04.244Z,99347.00
2022-08-02T09:53:12.201Z,99337.88
2022-08-02T09:58:20.432Z,99338.19
2022-08-02T10:03:25.273Z,99328.59
2022-08-02T10:08:39.632Z,99331.94
2022-08-02T10:13:44.548Z,99321.03
2022-08-02T10:18:47.590Z,99316.91
2022-08-02T10:23:51.499Z,99311.72
2022-08-02T10:28:56.137Z,99326.19
2022-08-02T10:34:02.465Z,99313.94
2022-08-02T10:39:06.352Z,99310.88
2022-08-02T10:44:24.475Z,99296.41
2022-08-02T10:49:39.719Z,99290.53
2022-08-02T10:54:45.641Z,99285.81
2022-08-02T10:59:52.322Z,99281.41
2022-08-02T11:05:07.979Z,99289.88
2022-08-02T11:10:37.524Z,99285.25
2022-08-02T11:15:54.164Z,99283.69
2022-08-02T11:21:24.773Z,99279.06
2022-08-02T11:26:44.587Z,99279.53
2022-08-02T11:31:49.258Z,99278.31
2022-08-02T11:36:54.636Z,99279.50
2022-08-02T11:41:59.124Z,99278.28
2022-08-02T11:47:03.950Z,99271.63
2022-08-02T11:52:10.918Z,99289.16
2022-08-02T11:57:19.731Z,99272.16
2022-08-02T12:02:26.734Z,99267.03
2022-08-02T12:07:34.766Z,99260.88
2022-08-02T12:12:49.336Z,99264.22
2022-08-02T12:18:10.878Z,99255.00
2022-08-02T12:23:14.542Z,99244.59
2022-08-02T12:28:20.481Z,99235.63
2022-08-02T12:33:26.762Z,99225.41
2022-08-02T12:38:29.744Z,99225.88
2022-08-02T12:43:32.903Z,99235.16
2022-08-02T12:48:48.149Z,99228.06
2022-08-02T12:54:14.030Z,99224.66
2022-08-02T12:59:38.588Z,99214.84
2022-08-02T13:04:49.793Z,99220.88
2022-08-02T13:10:02.600Z,99204.59
2022-08-02T13:15:12.677Z,99202.97
2022-08-02T13:20:31.929Z,99213.44
2022-08-02T13:25:35.055Z,99193.72
2022-08-02T13:30:38.481Z,99195.47
2022-08-02T13:35:42.909Z,99196.91
2022-08-02T13:41:04.561Z,99198.72
2022-08-02T13:46:08.152Z,99193.38
2022-08-02T13:51:14.914Z,99194.28
2022-08-02T13:56:18.095Z,99187.19
2022-08-02T14:01:21.158Z,99183.72
2022-08-02T14:06:25.640Z,99171.03
2022-08-02T14:11:30.946Z,99175.06
2022-08-02T14:16:33.978Z,99171.38
2022-08-02T14:21:47.029Z,99177.22
2022-08-02T14:26:51.916Z,99165.84
2022-08-02T14:31:54.961Z,99169.78
2022-08-02T14:36:59.397Z,99165.41
2022-08-02T14:42:02.551Z,99156.53
2022-08-02T14:47:06.901Z,99141.13
2022-08-02T14:52:13.210Z,99138.28
2022-08-02T14:57:16.610Z,99156.44
2022-08-02T15:02:19.619Z,99154.69
2022-08-02T15:07:24.048Z,99140.94
2022-08-02T15:12:27.011Z,99143.41
2022-08-02T15:17:30.095Z,99136.34
2022-08-02T15:22:34.633Z,99133.66
2022-08-02T15:27:37.758Z,99128.53
2022-08-02T15:32:52.427Z,99127.97
2022-08-02T15:37:57.902Z,99124.66
2022-08-02T15:43:00.908Z,99127.56
2022-08-02T15:48:05.003Z,99127.38
2022-08-02T15:53:09.373Z,99127.56
2022-08-02T15:58:17.046Z,99124.50
2022-08-02T16:03:21.053Z,99124.84
2022-08-02T16:08:25.427Z,99122.13
2022-08-02T16:13:53.493Z,99120.09
2022-08-02T16:18:57.597Z,99124.47
2022-08-02T16:24:03.413Z,99118.09
2022-08-02T16:29:06.560Z,99115.41
2022-08-02T16:34:09.926Z,99120.00
2022-08-02T16:39:14.489Z,99122.28
2022-08-02T16:44:17.578Z,99124.09
2022-08-02T16:50:03.969Z,99129.94
2022-08-02T16:54:45.023Z,99121.81
2022-08-02T16:59:59.604Z,99118.69
2022-08-02T17:05:02.833Z,99121.81
2022-08-02T17:10:09.756Z,99118.00
2022-08-02T17:20:36.354Z,99128.75
2022-08-02T17:25:42.034Z,99133.66
2022-08-02T17:30:45.543Z,99129.56
2022-08-02T17:35:52.417Z,99136.69
2022-08-02T17:40:57.658Z,99134.16
2022-08-02T17:46:02.459Z,99134.78
2022-08-02T17:51:05.770Z,99136.81
2022-08-02T17:56:10.448Z,99136.69
2022-08-02T18:01:23.859Z,99135.38
2022-08-02T18:06:27.454Z,99132.03
2022-08-02T18:11:51.730Z,99131.84
2022-08-02T18:16:54.932Z,99140.31
2022-08-02T18:21:57.979Z,99136.38
2022-08-02T18:27:02.441Z,99143.38
2022-08-02T18:32:11.801Z,99137.66
2022-08-02T18:37:43.796Z,99143.47
2022-08-02T18:42:52.074Z,99148.78
2022-08-02T18:47:55.331Z,99153.75
2022-08-02T18:52:59.712Z,99158.66
2022-08-02T18:58:19.825Z,99154.91
2022-08-02T19:03:23.964Z,99155.56
2022-08-02T19:08:26.948Z,99163.66
2022-08-02T19:13:31.489Z,99163.00
2022-08-02T19:18:35.069Z,99164.25
2022-08-02T19:23:54.621Z,99173.38
2022-08-02T19:29:00.330Z,99168.31
2022-08-02T19:34:12.173Z,99175.72
2022-08-02T19:39:16.823Z,99178.69
2022-08-02T19:44:29.318Z,99180.34
2022-08-02T19:49:40.086Z,99186.13
2022-08-02T19:54:55.874Z,99187.81
2022-08-02T20:00:01.132Z,99188.06
2022-08-02T20:05:16.074Z,99194.63
2022-08-02T20:10:24.844Z,99199.44
2022-08-02T20:15:56.052Z,99205.19
2022-08-02T20:20:53.568Z,99208.41
2022-08-02T20:25:56.614Z,99210.34
2022-08-02T20:31:07.252Z,99211.66
2022-08-02T20:36:12.144Z,99216.44
2022-08-02T20:41:21.739Z,99215.66
2022-08-02T20:46:26.540Z,99218.97
2022-08-02T20:51:33.767Z,99220.84
2022-08-02T20:56:37.543Z,99216.66
2022-08-02T21:01:57.000Z,99215.88
2022-08-02T21:07:00.654Z,99215.66
2022-08-02T21:12:03.679Z,99207.81
2022-08-02T21:17:11.209Z,99196.09
2022-08-02T21:22:27.729Z,99203.72
2022-08-02T21:27:53.241Z,99203.72
2022-08-02T21:32:56.940Z,99204.72
2022-08-02T21:38:00.028Z,99201.28
2022-08-02T21:43:02.997Z,99205.03
2022-08-02T21:48:13.362Z,99191.22
2022-08-02T21:53:29.214Z,99197.25
2022-08-02T21:58:39.611Z,99206.66
2022-08-02T22:09:17.668Z,99192.75
2022-08-02T22:14:23.507Z,99205.50
2022-08-02T22:19:28.069Z,99202.97
2022-08-02T22:24:31.593Z,99205.31
2022-08-02T22:29:34.567Z,99205.38
2022-08-02T22:34:52.303Z,99214.19
2022-08-02T22:40:08.596Z,99220.16
2022-08-02T22:45:12.701Z,99221.16
2022-08-02T22:50:17.104Z,99221.78
2022-08-02T22:55:21.457Z,99224.59
2022-08-02T22:58:48.967Z,99125.66
2022-08-02T22:59:12.505Z,99202.91
2022-08-02T23:00:26.833Z,99226.66
2022-08-02T23:05:31.589Z,99223.13
2022-08-02T23:10:34.813Z,99221.03
2022-08-02T23:15:53.556Z,99219.84
2022-08-02T23:20:58.708Z,99227.13
2022-08-02T23:26:01.695Z,99218.34
2022-08-02T23:31:28.917Z,99220.19
2022-08-02T23:36:33.921Z,99225.34
2022-08-02T23:41:36.932Z,99228.41
2022-08-02T23:46:42.154Z,99222.59
2022-08-02T23:51:46.898Z,99221.78
2022-08-02T23:56:49.992Z,99220.00
